createdAt,value
2022-08-16T00:01:26.535Z,5.68
2022-08-16T00:04:01.715Z,4.93
2022-08-16T00:06:32.901Z,5.95
2022-08-16T00:09:00.226Z,5.82
2022-08-16T00:11:27.595Z,5.25
2022-08-16T00:13:55.433Z,6.20
2022-08-16T00:17:01.177Z,5.00
2022-08-16T00:19:22.729Z,5.70
2022-08-16T00:21:54.431Z,6.05
2022-08-16T00:24:30.942Z,5.78
2022-08-16T00:27:04.763Z,5.78
2022-08-16T00:29:32.887Z,5.75
2022-08-16T00:32:06.426Z,5.47
2022-08-16T00:34:44.754Z,5.90
2022-08-16T00:37:57.032Z,6.43
2022-08-16T00:40:34.075Z,6.63
2022-08-16T00:43:42.817Z,6.05
2022-08-16T00:46:33.515Z,5.65
2022-08-16T00:49:17.444Z,6.53
2022-08-16T00:51:55.086Z,6.22
2022-08-16T00:54:28.253Z,6.32
2022-08-16T00:57:00.035Z,5.85
2022-08-16T00:59:32.872Z,6.32
2022-08-16T01:02:30.238Z,7.03
2022-08-16T01:05:10.312Z,6.38
2022-08-16T01:07:50.994Z,7.05
2022-08-16T01:10:32.508Z,6.55
2022-08-16T01:13:15.030Z,7.38
2022-08-16T01:16:01.163Z,5.88
2022-08-16T01:18:47.186Z,6.32
2022-08-16T01:21:47.090Z,6.20
2022-08-16T01:24:55.664Z,5.57
2022-08-16T01:27:41.999Z,6.93
2022-08-16T01:30:26.456Z,7.20
2022-08-16T01:33:02.325Z,6.43
2022-08-16T01:36:01.857Z,5.50
2022-08-16T01:38:47.066Z,6.25
2022-08-16T01:41:23.987Z,6.82
2022-08-16T01:43:54.651Z,7.13
2022-08-16T01:46:39.251Z,6.00
2022-08-16T01:49:42.867Z,6.60
2022-08-16T01:52:27.992Z,6.32
2022-08-16T01:55:18.734Z,5.57
2022-08-16T01:57:53.573Z,6.70
2022-08-16T02:00:29.291Z,6.20
2022-08-16T02:02:59.175Z,6.95
2022-08-16T02:05:30.474Z,6.57
2022-08-16T02:08:00.989Z,6.95
2022-08-16T02:10:31.315Z,6.80
2022-08-16T02:13:04.725Z,7.03
2022-08-16T02:15:42.370Z,6.78
2022-08-16T02:18:12.978Z,6.53
2022-08-16T02:20:47.560Z,6.47
2022-08-16T02:23:17.143Z,7.53
2022-08-16T02:25:51.747Z,7.90
2022-08-16T02:28:24.372Z,6.82
2022-08-16T02:30:54.749Z,7.15
2022-08-16T02:33:43.432Z,6.50
2022-08-16T02:36:47.249Z,6.82
2022-08-16T02:39:08.839Z,7.38
2022-08-16T02:41:39.408Z,7.00
2022-08-16T02:44:14.107Z,7.70
2022-08-16T02:46:49.939Z,7.80
2022-08-16T02:49:20.466Z,8.38
2022-08-16T02:51:48.211Z,9.30
2022-08-16T02:54:17.530Z,8.43
2022-08-16T02:56:47.833Z,9.32
2022-08-16T02:59:15.922Z,9.82
2022-08-16T03:01:44.227Z,10.40
2022-08-16T03:04:39.565Z,9.05
2022-08-16T03:07:08.186Z,8.93
2022-08-16T03:09:44.609Z,8.68
2022-08-16T03:12:16.501Z,10.00
2022-08-16T03:14:47.744Z,9.75
2022-08-16T03:17:17.940Z,9.65
2022-08-16T03:19:48.715Z,8.52
2022-08-16T03:22:28.701Z,9.48
2022-08-16T03:25:02.085Z,8.68
2022-08-16T03:27:33.512Z,8.20
2022-08-16T03:30:16.382Z,9.18
2022-08-16T03:32:58.436Z,7.40
2022-08-16T03:35:33.686Z,7.78
2022-08-16T03:38:32.787Z,9.45
2022-08-16T03:41:24.313Z,8.30
2022-08-16T03:43:58.684Z,7.82
2022-08-16T03:46:47.997Z,9.30
2022-08-16T03:49:36.787Z,7.95
2022-08-16T03:52:07.156Z,7.60
2022-08-16T03:54:35.993Z,7.87
2022-08-16T03:57:05.288Z,7.47
2022-08-16T03:59:33.906Z,7.43
2022-08-16T04:02:22.725Z,7.32
2022-08-16T04:04:59.635Z,8.32
2022-08-16T04:07:27.294Z,7.82
2022-08-16T04:10:35.884Z,7.57
2022-08-16T04:12:53.936Z,6.60
2022-08-16T04:15:23.803Z,7.07
2022-08-16T04:18:14.351Z,6.38
2022-08-16T04:20:42.524Z,7.60
2022-08-16T04:23:10.809Z,7.53
2022-08-16T04:28:28.996Z,6.32
2022-08-16T04:30:58.950Z,5.97
2022-08-16T04:33:28.292Z,5.38
2022-08-16T04:35:59.638Z,7.07
2022-08-16T04:38:30.638Z,5.68
2022-08-16T04:40:58.931Z,5.22
2022-08-16T04:43:27.364Z,6.00
2022-08-16T04:46:00.270Z,5.90
2022-08-16T04:48:32.739Z,5.13
2022-08-16T04:51:07.864Z,5.22
2022-08-16T04:53:48.082Z,5.40
2022-08-16T04:56:18.834Z,5.25
2022-08-16T04:58:47.362Z,5.70
2022-08-16T05:01:19.259Z,6.07
2022-08-16T05:04:00.929Z,5.85
2022-08-16T05:06:42.358Z,5.40
2022-08-16T05:09:23.771Z,5.38
2022-08-16T05:11:57.666Z,5.88
2022-08-16T05:14:46.017Z,5.57
2022-08-16T05:17:24.719Z,5.40
2022-08-16T05:19:57.568Z,5.32
2022-08-16T05:22:35.822Z,6.10
2022-08-16T05:25:09.076Z,6.32
2022-08-16T05:27:42.711Z,4.60
2022-08-16T05:30:34.596Z,5.28
2022-08-16T05:33:01.213Z,5.60
2022-08-16T05:35:28.736Z,5.60
2022-08-16T05:38:33.020Z,5.20
2022-08-16T05:41:02.724Z,6.68
2022-08-16T05:43:46.426Z,5.50
2022-08-16T05:46:29.731Z,6.40
2022-08-16T05:49:16.198Z,5.88
2022-08-16T05:51:51.860Z,6.15
2022-08-16T05:54:25.617Z,6.07
2022-08-16T05:56:57.804Z,5.63
2022-08-16T05:59:28.537Z,5.35
2022-08-16T06:01:58.441Z,5.97
2022-08-16T06:04:34.737Z,6.07
2022-08-16T06:07:08.857Z,5.65
2022-08-16T06:09:43.300Z,5.90
2022-08-16T06:12:26.682Z,6.82
2022-08-16T06:15:01.772Z,5.97
2022-08-16T06:17:41.461Z,6.20
2022-08-16T06:20:24.173Z,6.00
2022-08-16T06:22:58.740Z,6.57
2022-08-16T06:25:44.406Z,5.65
2022-08-16T06:28:34.997Z,6.00
2022-08-16T06:31:12.061Z,6.65
2022-08-16T06:33:44.710Z,6.85
2022-08-16T06:36:16.580Z,6.80
2022-08-16T06:38:56.548Z,6.70
2022-08-16T06:41:47.593Z,7.00
2022-08-16T06:44:32.823Z,6.80
2022-08-16T06:47:04.456Z,7.35
2022-08-16T06:49:32.433Z,7.20
2022-08-16T06:52:02.594Z,6.43
2022-08-16T06:54:34.452Z,7.07
2022-08-16T06:57:02.703Z,7.38
2022-08-16T06:59:30.962Z,7.35
2022-08-16T07:02:33.221Z,6.85
2022-08-16T07:05:15.142Z,6.90
2022-08-16T07:07:52.320Z,6.32
2022-08-16T07:10:25.845Z,6.22
2022-08-16T07:13:04.123Z,6.82
2022-08-16T07:15:50.358Z,7.18
2022-08-16T07:18:24.587Z,6.53
2022-08-16T07:20:53.963Z,6.82
2022-08-16T07:23:38.947Z,6.53
2022-08-16T07:26:24.362Z,6.82
2022-08-16T07:28:53.461Z,6.75
2022-08-16T07:31:21.927Z,6.53
2022-08-16T07:33:51.846Z,5.78
2022-08-16T07:36:26.734Z,6.10
2022-08-16T07:38:57.392Z,6.63
2022-08-16T07:44:00.153Z,6.30
2022-08-16T07:46:39.736Z,6.72
2022-08-16T07:49:19.724Z,6.00
2022-08-16T07:51:47.661Z,6.78
2022-08-16T07:54:20.706Z,6.18
2022-08-16T07:56:51.658Z,6.93
2022-08-16T07:59:21.376Z,6.50
2022-08-16T08:01:53.009Z,6.53
2022-08-16T08:04:21.584Z,6.70
2022-08-16T08:06:52.243Z,6.43
2022-08-16T08:09:19.945Z,6.30
2022-08-16T08:12:00.852Z,6.80
2022-08-16T08:14:37.009Z,6.90
2022-08-16T08:18:41.423Z,6.68
2022-08-16T08:19:55.071Z,6.35
2022-08-16T08:22:22.910Z,7.43
2022-08-16T08:24:59.074Z,7.63
2022-08-16T08:27:32.801Z,6.28
2022-08-16T08:30:49.016Z,6.53
2022-08-16T08:32:59.582Z,7.13
2022-08-16T08:35:35.964Z,6.65
2022-08-16T08:38:06.766Z,5.50
2022-08-16T08:40:36.078Z,6.75
2022-08-16T08:43:12.169Z,8.05
2022-08-16T08:45:53.352Z,7.70
2022-08-16T08:48:33.570Z,6.88
2022-08-16T08:51:09.666Z,6.82
2022-08-16T08:53:58.562Z,6.15
2022-08-16T08:56:34.974Z,7.40
2022-08-16T08:59:33.170Z,7.35
2022-08-16T09:02:03.329Z,6.65
2022-08-16T09:04:40.359Z,7.25
2022-08-16T09:07:08.047Z,6.75
2022-08-16T09:09:40.927Z,7.18
2022-08-16T09:12:30.230Z,7.30
2022-08-16T09:15:05.127Z,7.10
2022-08-16T09:17:51.877Z,6.80
2022-08-16T09:20:27.307Z,7.75
2022-08-16T09:22:55.878Z,7.07
2022-08-16T09:25:34.332Z,7.05
2022-08-16T09:28:09.527Z,7.35
2022-08-16T09:30:58.081Z,7.20
2022-08-16T09:33:25.637Z,7.03
2022-08-16T09:35:54.586Z,6.63
2022-08-16T09:38:31.845Z,6.85
2022-08-16T09:41:04.121Z,6.15
2022-08-16T09:43:57.977Z,6.60
2022-08-16T09:46:45.970Z,7.57
2022-08-16T09:49:08.685Z,7.85
2022-08-16T09:51:40.550Z,8.10
2022-08-16T09:54:16.616Z,8.25
2022-08-16T09:56:52.097Z,7.68
2022-08-16T09:59:22.978Z,8.23
2022-08-16T10:01:51.812Z,7.00
2022-08-16T10:04:31.648Z,7.25
2022-08-16T10:07:15.478Z,8.05
2022-08-16T10:09:55.191Z,8.30
2022-08-16T10:12:55.776Z,8.70
2022-08-16T10:15:30.049Z,8.02
2022-08-16T10:18:00.639Z,8.60
2022-08-16T10:20:37.743Z,8.07
2022-08-16T10:23:09.898Z,6.97
2022-08-16T10:27:18.898Z,7.80
2022-08-16T10:28:39.675Z,7.68
2022-08-16T10:31:14.401Z,7.53
2022-08-16T10:33:45.204Z,7.47
2022-08-16T10:36:38.576Z,7.63
2022-08-16T10:39:02.431Z,7.45
2022-08-16T10:41:32.588Z,8.32
2022-08-16T10:44:00.893Z,9.25
2022-08-16T10:46:40.119Z,9.00
2022-08-16T10:49:12.392Z,8.52
2022-08-16T10:52:02.364Z,9.18
2022-08-16T10:54:29.803Z,9.68
2022-08-16T10:57:04.442Z,8.55
2022-08-16T10:59:45.110Z,8.85
2022-08-16T11:02:58.725Z,8.88
2022-08-16T11:05:13.944Z,9.07
2022-08-16T11:07:52.300Z,9.15
2022-08-16T11:19:05.346Z,9.18
2022-08-16T11:22:22.878Z,9.02
2022-08-16T11:24:39.929Z,9.13
2022-08-16T11:27:32.508Z,9.88
2022-08-16T11:29:57.748Z,8.88
2022-08-16T11:32:31.864Z,8.57
2022-08-16T11:35:17.248Z,8.30
2022-08-16T11:38:23.314Z,7.50
2022-08-16T11:40:52.752Z,7.18
2022-08-16T11:43:26.487Z,6.25
2022-08-16T11:45:56.809Z,6.82
2022-08-16T11:48:27.064Z,7.45
2022-08-16T11:50:55.272Z,6.68
2022-08-16T11:53:24.329Z,7.28
2022-08-16T11:55:54.882Z,6.43
2022-08-16T11:58:28.257Z,7.32
2022-08-16T12:00:57.796Z,6.55
2022-08-16T12:03:31.413Z,6.40
2022-08-16T12:06:25.457Z,6.97
2022-08-16T12:09:01.920Z,5.78
2022-08-16T12:11:32.092Z,5.82
2022-08-16T12:14:04.523Z,6.32
2022-08-16T12:16:34.826Z,6.18
2022-08-16T12:19:06.314Z,5.68
2022-08-16T12:21:58.143Z,5.43
2022-08-16T12:24:27.431Z,5.63
2022-08-16T12:26:55.601Z,5.95
2022-08-16T12:29:25.843Z,5.47
2022-08-16T12:32:26.758Z,5.90
2022-08-16T12:34:48.053Z,5.78
2022-08-16T12:37:21.717Z,6.10
2022-08-16T12:39:56.864Z,5.57
2022-08-16T12:42:35.198Z,5.70
2022-08-16T12:45:11.270Z,6.00
2022-08-16T12:48:15.878Z,5.82
2022-08-16T12:50:49.359Z,6.13
2022-08-16T12:53:20.871Z,5.40
2022-08-16T12:55:49.460Z,5.70
2022-08-16T12:58:48.415Z,5.47
2022-08-16T13:01:07.627Z,5.57
2022-08-16T13:03:40.977Z,5.38
2022-08-16T13:06:09.569Z,5.63
2022-08-16T13:08:41.229Z,5.35
2022-08-16T13:11:09.134Z,5.43
2022-08-16T13:13:36.848Z,4.80
2022-08-16T13:16:15.342Z,5.50
2022-08-16T13:18:52.329Z,6.05
2022-08-16T13:21:23.782Z,5.45
2022-08-16T13:23:53.456Z,5.57
2022-08-16T13:26:24.611Z,5.75
2022-08-16T13:28:54.385Z,5.75
2022-08-16T13:31:21.970Z,5.60
2022-08-16T13:36:48.002Z,4.65
2022-08-16T13:39:14.374Z,4.25
2022-08-16T13:41:41.959Z,3.92
2022-08-16T13:44:10.252Z,3.80
2022-08-16T13:46:38.784Z,4.13
2022-08-16T13:49:06.412Z,3.90
2022-08-16T13:51:34.100Z,3.83
2022-08-16T13:54:06.111Z,3.80
2022-08-16T13:56:37.514Z,3.92
2022-08-16T13:59:19.465Z,4.10
2022-08-16T14:01:56.445Z,4.15
2022-08-16T14:04:35.451Z,3.55
2022-08-16T14:09:36.314Z,3.35
2022-08-16T14:12:17.803Z,3.63
2022-08-16T14:14:46.858Z,3.70
2022-08-16T14:17:16.628Z,3.42
2022-08-16T14:19:46.093Z,2.97
2022-08-16T14:22:35.603Z,3.13
2022-08-16T14:25:16.416Z,3.22
2022-08-16T14:27:44.726Z,3.55
2022-08-16T14:30:16.343Z,3.33
2022-08-16T14:32:46.932Z,3.28
2022-08-16T14:35:29.353Z,3.50
2022-08-16T14:38:17.941Z,3.42
2022-08-16T14:40:55.499Z,3.53
2022-08-16T14:43:29.775Z,3.53
2022-08-16T14:45:58.341Z,3.60
2022-08-16T14:48:26.737Z,4.03
2022-08-16T14:50:55.385Z,3.60
2022-08-16T14:53:24.879Z,3.78
2022-08-16T14:55:54.670Z,4.25
2022-08-16T14:58:34.954Z,3.70
2022-08-16T15:01:10.270Z,3.80
2022-08-16T15:03:37.989Z,3.55
2022-08-16T15:06:06.034Z,3.85
2022-08-16T15:08:36.383Z,3.80
2022-08-16T15:11:07.622Z,4.20
2022-08-16T15:13:36.352Z,3.97
2022-08-16T15:16:05.769Z,4.07
2022-08-16T15:18:33.665Z,4.40
2022-08-16T15:21:04.016Z,4.30
2022-08-16T15:23:33.937Z,4.53
2022-08-16T15:26:03.971Z,5.43
2022-08-16T15:31:10.479Z,5.07
2022-08-16T15:33:50.116Z,4.82
2022-08-16T15:36:21.448Z,4.72
2022-08-16T15:39:02.359Z,4.82
2022-08-16T15:41:42.998Z,5.25
2022-08-16T15:44:22.851Z,5.18
2022-08-16T15:46:56.201Z,5.25
2022-08-16T15:49:38.094Z,5.10
2022-08-16T15:52:29.366Z,5.78
2022-08-16T15:55:12.763Z,5.20
2022-08-16T15:57:51.687Z,4.65
2022-08-16T16:00:20.923Z,5.13
2022-08-16T16:02:49.463Z,4.95
2022-08-16T16:05:19.123Z,4.65
2022-08-16T16:07:56.935Z,4.95
2022-08-16T16:10:37.470Z,5.47
2022-08-16T16:13:08.820Z,5.30
2022-08-16T16:15:48.668Z,5.20
2022-08-16T16:20:55.682Z,5.18
2022-08-16T16:23:29.354Z,4.88
2022-08-16T16:25:58.360Z,5.45
2022-08-16T16:28:46.315Z,5.35
2022-08-16T16:31:19.530Z,5.57
2022-08-16T16:33:51.356Z,5.10
2022-08-16T16:36:23.173Z,8.30
2022-08-16T16:38:53.181Z,6.53
2022-08-16T16:41:25.505Z,24.70
2022-08-16T16:43:55.920Z,9.75
2022-08-16T16:46:42.106Z,7.15
2022-08-16T16:49:14.216Z,5.82
2022-08-16T16:51:47.137Z,7.10
2022-08-16T16:54:27.657Z,5.47
2022-08-16T16:56:58.141Z,6.35
2022-08-16T16:59:28.155Z,11.02
2022-08-16T17:02:01.592Z,5.50
2022-08-16T17:04:44.737Z,5.95
2022-08-16T17:07:12.426Z,5.40
2022-08-16T17:09:41.508Z,5.60
2022-08-16T17:12:22.647Z,5.43
2022-08-16T17:14:54.260Z,5.95
2022-08-16T17:17:22.406Z,5.43
2022-08-16T17:19:50.221Z,5.30
2022-08-16T17:22:22.071Z,5.20
2022-08-16T17:24:53.238Z,5.30
2022-08-16T17:27:32.884Z,4.95
2022-08-16T17:30:16.185Z,5.05
2022-08-16T17:32:54.800Z,6.30
2022-08-16T17:35:40.872Z,6.60
2022-08-16T17:38:11.164Z,5.18
2022-08-16T17:40:58.365Z,5.88
2022-08-16T17:43:34.132Z,5.50
2022-08-16T17:46:05.925Z,5.03
2022-08-16T17:48:53.532Z,5.10
2022-08-16T17:51:25.858Z,5.15
2022-08-16T17:53:53.781Z,7.23
2022-08-16T17:56:21.375Z,5.20
2022-08-16T17:58:48.892Z,4.95
2022-08-16T18:01:17.350Z,5.60
2022-08-16T18:04:06.764Z,4.80
2022-08-16T18:06:34.015Z,5.63
2022-08-16T18:09:03.461Z,5.45
2022-08-16T18:11:35.657Z,5.20
2022-08-16T18:14:04.379Z,6.10
2022-08-16T18:16:33.623Z,5.93
2022-08-16T18:19:01.867Z,5.77
2022-08-16T18:21:48.341Z,5.88
2022-08-16T18:24:16.518Z,6.00
2022-08-16T18:26:44.423Z,6.57
2022-08-16T18:29:12.854Z,6.60
2022-08-16T18:31:40.824Z,5.22
2022-08-16T18:34:08.376Z,6.47
2022-08-16T18:36:37.468Z,6.70
2022-08-16T18:39:05.999Z,6.15
2022-08-16T18:41:37.351Z,6.18
2022-08-16T18:44:24.708Z,6.70
2022-08-16T18:46:54.402Z,7.78
2022-08-16T18:49:21.722Z,9.52
2022-08-16T18:51:50.758Z,9.15
2022-08-16T18:54:18.698Z,10.90
2022-08-16T18:56:55.566Z,8.52
2022-08-16T18:59:30.902Z,8.82
2022-08-16T19:02:04.380Z,7.97
2022-08-16T19:04:56.754Z,7.63
2022-08-16T19:07:30.808Z,7.72
2022-08-16T19:10:05.005Z,7.72
2022-08-16T19:12:37.909Z,7.85
2022-08-16T19:15:22.133Z,7.40
2022-08-16T19:17:50.067Z,7.82
2022-08-16T19:20:23.639Z,8.32
2022-08-16T19:23:10.527Z,7.80
2022-08-16T19:25:47.464Z,7.30
2022-08-16T19:28:51.692Z,6.88
2022-08-16T19:31:25.794Z,7.95
2022-08-16T19:33:56.514Z,7.05
2022-08-16T19:36:36.774Z,7.03
2022-08-16T19:39:13.822Z,8.38
2022-08-16T19:41:53.482Z,7.75
2022-08-16T19:44:22.905Z,7.53
2022-08-16T19:46:50.910Z,7.00
2022-08-16T19:49:18.428Z,7.20
2022-08-16T19:51:47.601Z,7.85
2022-08-16T19:54:16.032Z,8.23
2022-08-16T19:56:43.460Z,8.25
2022-08-16T19:59:20.474Z,8.73
2022-08-16T20:01:52.036Z,7.85
2022-08-16T20:04:21.834Z,7.70
2022-08-16T20:06:50.072Z,8.13
2022-08-16T20:09:17.594Z,8.43
2022-08-16T20:11:46.467Z,9.25
2022-08-16T20:14:24.940Z,9.38
2022-08-16T20:16:59.560Z,8.13
2022-08-16T20:19:37.003Z,8.98
2022-08-16T20:22:49.671Z,8.98
2022-08-16T20:25:16.316Z,10.05
2022-08-16T20:27:44.854Z,8.95
2022-08-16T20:30:16.587Z,9.05
2022-08-16T20:32:46.211Z,7.80
2022-08-16T20:35:18.662Z,8.52
2022-08-16T20:37:47.639Z,9.23
2022-08-16T20:40:33.985Z,7.18
2022-08-16T20:43:13.467Z,8.07
2022-08-16T20:45:44.727Z,8.20
2022-08-16T20:48:12.713Z,8.57
2022-08-16T20:50:41.627Z,7.72
2022-08-16T20:53:09.183Z,8.18
2022-08-16T20:55:40.120Z,7.72
2022-08-16T20:58:07.656Z,8.35
2022-08-16T21:00:35.245Z,8.10
2022-08-16T21:03:12.182Z,7.95
2022-08-16T21:05:39.968Z,7.90
2022-08-16T21:08:51.143Z,7.50
2022-08-16T21:10:56.433Z,7.85
2022-08-16T21:13:30.779Z,8.15
2022-08-16T21:15:59.523Z,8.23
2022-08-16T21:18:27.270Z,7.35
2022-08-16T21:20:54.684Z,7.15
2022-08-16T21:23:22.286Z,8.05
2022-08-16T21:25:58.088Z,7.35
2022-08-16T21:28:39.259Z,7.55
2022-08-16T21:31:15.562Z,7.47
2022-08-16T21:33:44.242Z,7.40
2022-08-16T21:36:14.890Z,7.25
2022-08-16T21:38:42.438Z,6.88
2022-08-16T21:41:12.903Z,7.95
2022-08-16T21:43:41.104Z,8.02
2022-08-16T21:46:09.125Z,7.93
2022-08-16T21:48:40.516Z,7.20
2022-08-16T21:51:12.448Z,7.38
2022-08-16T21:53:41.697Z,7.53
2022-08-16T21:56:17.338Z,7.70
2022-08-16T21:58:47.984Z,7.53
2022-08-16T22:01:23.443Z,7.50
2022-08-16T22:04:01.743Z,7.65
2022-08-16T22:06:41.015Z,7.85
2022-08-16T22:09:10.227Z,7.53
2022-08-16T22:11:38.404Z,7.43
2022-08-16T22:14:06.324Z,7.78
2022-08-16T22:16:38.203Z,7.05
2022-08-16T22:19:06.799Z,8.57
2022-08-16T22:21:35.141Z,7.53
2022-08-16T22:24:02.771Z,8.35
2022-08-16T22:26:36.816Z,8.45
2022-08-16T22:29:12.626Z,7.40
2022-08-16T22:31:41.565Z,8.23
2022-08-16T22:34:09.170Z,8.70
2022-08-16T22:36:37.349Z,7.57
2022-08-16T22:39:09.640Z,7.95
2022-08-16T22:41:40.151Z,7.93
2022-08-16T22:44:08.397Z,7.75
2022-08-16T22:46:37.748Z,8.10
2022-08-16T22:49:09.282Z,8.43
2022-08-16T22:51:38.893Z,8.27
2022-08-16T22:54:33.983Z,9.50
2022-08-16T22:56:55.005Z,8.80
2022-08-16T22:59:24.881Z,8.10
2022-08-16T23:01:52.758Z,8.85
2022-08-16T23:04:20.363Z,8.77
2022-08-16T23:06:47.727Z,8.50
2022-08-16T23:09:15.078Z,9.52
2022-08-16T23:11:42.332Z,9.70
2022-08-16T23:14:09.958Z,8.57
2022-08-16T23:16:37.390Z,9.32
2022-08-16T23:19:12.413Z,8.85
2022-08-16T23:21:44.514Z,9.52
2022-08-16T23:24:13.881Z,9.20
2022-08-16T23:26:47.496Z,9.55
2022-08-16T23:29:23.973Z,9.25
2022-08-16T23:31:56.486Z,8.88
2022-08-16T23:34:25.046Z,8.82
2022-08-16T23:36:52.678Z,9.05
2022-08-16T23:39:20.086Z,9.32
2022-08-16T23:41:47.365Z,8.88
2022-08-16T23:44:55.298Z,7.88
2022-08-16T23:47:02.486Z,9.10
2022-08-16T23:49:57.515Z,9.23
2022-08-16T23:52:53.765Z,8.82
2022-08-16T23:55:07.505Z,9.40
2022-08-16T23:57:34.787Z,9.77
